sensor_id;sensor_type;location;lat;lon;timestamp;pressure;altitude;pressure_sealevel;temperature;humidity
14041;BME280;7095;51.388;6.196;2022-12-22T00:01:34;113654.06;;;-145.32;100.00
14041;BME280;7095;51.388;6.196;2022-12-22T00:04:21;113913.03;;;-145.32;100.00
14041;BME280;7095;51.388;6.196;2022-12-22T00:07:08;113913.03;;;-145.32;100.00
14041;BME280;7095;51.388;6.196;2022-12-22T00:09:55;113913.03;;;-145.32;100.00
14041;BME280;7095;51.388;6.196;2022-12-22T00:12:42;113913.03;;;-145.32;100.00
14041;BME280;7095;51.388;6.196;2022-12-22T00:15:30;114172.03;;;-145.32;100.00
14041;BME280;7095;51.388;6.196;2022-12-22T00:18:18;114431.03;;;-145.32;100.00
14041;BME280;7095;51.388;6.196;2022-12-22T00:21:05;114172.03;;;-145.32;100.00
14041;BME280;7095;51.388;6.196;2022-12-22T00:23:50;113913.03;;;-145.32;100.00
14041;BME280;7095;51.388;6.196;2022-12-22T00:26:38;113913.03;;;-145.32;100.00
14041;BME280;7095;51.388;6.196;2022-12-22T00:29:27;114172.03;;;-145.32;100.00
14041;BME280;7095;51.388;6.196;2022-12-22T00:32:16;114172.03;;;-145.32;100.00
14041;BME280;7095;51.388;6.196;2022-12-22T00:35:02;114172.03;;;-145.32;100.00
14041;BME280;7095;51.388;6.196;2022-12-22T00:37:48;114431.03;;;-145.32;100.00
14041;BME280;7095;51.388;6.196;2022-12-22T00:40:34;114172.03;;;-145.32;100.00
14041;BME280;7095;51.388;6.196;2022-12-22T00:43:21;113913.03;;;-145.32;100.00
14041;BME280;7095;51.388;6.196;2022-12-22T00:46:10;114172.03;;;-145.32;100.00
14041;BME280;7095;51.388;6.196;2022-12-22T00:48:57;114431.03;;;-145.32;100.00
14041;BME280;7095;51.388;6.196;2022-12-22T00:51:43;114431.03;;;-145.32;100.00
14041;BME280;7095;51.388;6.196;2022-12-22T00:54:30;114431.03;;;-145.32;100.00
14041;BME280;7095;51.388;6.196;2022-12-22T00:57:17;114431.03;;;-145.32;100.00
14041;BME280;7095;51.388;6.196;2022-12-22T01:00:14;114690.03;;;-145.32;100.00
14041;BME280;7095;51.388;6.196;2022-12-22T01:03:01;114690.03;;;-145.32;100.00
14041;BME280;7095;51.388;6.196;2022-12-22T01:05:48;114949.09;;;-145.32;100.00
14041;BME280;7095;51.388;6.196;2022-12-22T01:08:34;114949.09;;;-145.32;100.00
14041;BME280;7095;51.388;6.196;2022-12-22T01:11:20;115208.13;;;-145.32;100.00
14041;BME280;7095;51.388;6.196;2022-12-22T01:14:09;115208.13;;;-145.32;100.00
14041;BME280;7095;51.388;6.196;2022-12-22T01:16:57;115208.13;;;-145.32;100.00
14041;BME280;7095;51.388;6.196;2022-12-22T01:19:43;115208.13;;;-145.32;100.00
14041;BME280;7095;51.388;6.196;2022-12-22T01:22:30;115208.13;;;-145.32;100.00
14041;BME280;7095;51.388;6.196;2022-12-22T01:25:18;115208.13;;;-145.32;100.00
14041;BME280;7095;51.388;6.196;2022-12-22T01:28:04;115208.13;;;-145.32;100.00
14041;BME280;7095;51.388;6.196;2022-12-22T01:30:51;115208.13;;;-145.32;100.00
14041;BME280;7095;51.388;6.196;2022-12-22T01:33:38;115208.13;;;-145.32;100.00
14041;BME280;7095;51.388;6.196;2022-12-22T01:36:24;115467.22;;;-145.32;100.00
14041;BME280;7095;51.388;6.196;2022-12-22T01:39:11;115467.22;;;-145.32;100.00
14041;BME280;7095;51.388;6.196;2022-12-22T01:41:57;115467.22;;;-145.32;100.00
14041;BME280;7095;51.388;6.196;2022-12-22T01:44:43;115467.22;;;-145.32;100.00
14041;BME280;7095;51.388;6.196;2022-12-22T01:47:31;115467.22;;;-145.32;100.00
14041;BME280;7095;51.388;6.196;2022-12-22T01:50:24;115467.22;;;-145.32;100.00
14041;BME280;7095;51.388;6.196;2022-12-22T01:53:15;115467.22;;;-145.32;100.00
14041;BME280;7095;51.388;6.196;2022-12-22T01:56:03;115467.22;;;-145.32;100.00
14041;BME280;7095;51.388;6.196;2022-12-22T01:58:51;115726.31;;;-145.32;100.00
14041;BME280;7095;51.388;6.196;2022-12-22T02:01:39;115726.31;;;-145.32;100.00
14041;BME280;7095;51.388;6.196;2022-12-22T02:04:28;115726.31;;;-145.32;100.00
14041;BME280;7095;51.388;6.196;2022-12-22T02:10:42;115726.31;;;-145.32;100.00
14041;BME280;7095;51.388;6.196;2022-12-22T02:13:41;115726.31;;;-145.32;100.00
14041;BME280;7095;51.388;6.196;2022-12-22T02:16:34;115726.31;;;-145.32;100.00
14041;BME280;7095;51.388;6.196;2022-12-22T02:19:40;115728.34;;;-145.32;100.00
14041;BME280;7095;51.388;6.196;2022-12-22T02:22:44;115728.34;;;-145.32;100.00
14041;BME280;7095;51.388;6.196;2022-12-22T02:25:36;115728.34;;;-145.32;100.00
14041;BME280;7095;51.388;6.196;2022-12-22T02:28:27;115728.34;;;-145.32;100.00
14041;BME280;7095;51.388;6.196;2022-12-22T02:31:16;115728.34;;;-145.32;100.00
14041;BME280;7095;51.388;6.196;2022-12-22T02:34:02;115728.34;;;-145.32;100.00
14041;BME280;7095;51.388;6.196;2022-12-22T02:36:56;115728.34;;;-145.32;100.00
14041;BME280;7095;51.388;6.196;2022-12-22T02:39:52;115728.34;;;-145.32;100.00
14041;BME280;7095;51.388;6.196;2022-12-22T02:42:49;115728.34;;;-145.32;100.00
14041;BME280;7095;51.388;6.196;2022-12-22T02:45:46;115728.34;;;-145.32;100.00
14041;BME280;7095;51.388;6.196;2022-12-22T02:48:39;115728.34;;;-145.32;100.00
14041;BME280;7095;51.388;6.196;2022-12-22T02:51:27;115728.34;;;-145.32;100.00
14041;BME280;7095;51.388;6.196;2022-12-22T02:54:16;115728.34;;;-145.32;100.00
14041;BME280;7095;51.388;6.196;2022-12-22T02:57:04;115728.34;;;-145.32;100.00
14041;BME280;7095;51.388;6.196;2022-12-22T02:59:51;115728.34;;;-145.32;100.00
14041;BME280;7095;51.388;6.196;2022-12-22T03:02:39;115728.34;;;-145.32;100.00
14041;BME280;7095;51.388;6.196;2022-12-22T03:05:25;115728.34;;;-145.32;100.00
14041;BME280;7095;51.388;6.196;2022-12-22T03:08:12;115728.34;;;-145.32;100.00
14041;BME280;7095;51.388;6.196;2022-12-22T03:10:58;115728.34;;;-145.32;100.00
14041;BME280;7095;51.388;6.196;2022-12-22T03:13:44;115728.34;;;-145.32;100.00
14041;BME280;7095;51.388;6.196;2022-12-22T03:16:33;115728.34;;;-145.32;100.00
14041;BME280;7095;51.388;6.196;2022-12-22T03:19:21;115728.34;;;-145.32;100.00
14041;BME280;7095;51.388;6.196;2022-12-22T03:22:09;115728.34;;;-145.32;100.00
14041;BME280;7095;51.388;6.196;2022-12-22T03:24:56;115728.34;;;-145.32;100.00
14041;BME280;7095;51.388;6.196;2022-12-22T03:27:42;115728.34;;;-145.32;100.00
14041;BME280;7095;51.388;6.196;2022-12-22T03:30:11;115728.34;;;-145.32;100.00
14041;BME280;7095;51.388;6.196;2022-12-22T03:32:40;115728.34;;;-145.32;100.00
14041;BME280;7095;51.388;6.196;2022-12-22T03:35:10;115728.34;;;-145.32;100.00
14041;BME280;7095;51.388;6.196;2022-12-22T03:37:39;115728.34;;;-145.32;100.00
14041;BME280;7095;51.388;6.196;2022-12-22T03:40:09;115728.34;;;-145.32;100.00
14041;BME280;7095;51.388;6.196;2022-12-22T03:42:38;115728.34;;;-145.32;100.00
14041;BME280;7095;51.388;6.196;2022-12-22T03:45:24;115728.34;;;-145.32;100.00
14041;BME280;7095;51.388;6.196;2022-12-22T03:48:10;115728.34;;;-145.32;100.00
14041;BME280;7095;51.388;6.196;2022-12-22T03:50:42;115728.34;;;-145.32;100.00
14041;BME280;7095;51.388;6.196;2022-12-22T03:53:12;115728.34;;;-145.32;100.00
14041;BME280;7095;51.388;6.196;2022-12-22T03:55:44;115728.34;;;-145.32;100.00
14041;BME280;7095;51.388;6.196;2022-12-22T03:58:27;115728.34;;;-145.32;100.00
14041;BME280;7095;51.388;6.196;2022-12-22T04:01:04;115728.34;;;-145.32;100.00
14041;BME280;7095;51.388;6.196;2022-12-22T04:03:39;115728.34;;;-145.32;100.00
14041;BME280;7095;51.388;6.196;2022-12-22T04:06:12;115728.34;;;-145.32;100.00
14041;BME280;7095;51.388;6.196;2022-12-22T04:08:49;115728.34;;;-145.32;100.00
14041;BME280;7095;51.388;6.196;2022-12-22T04:11:19;115728.34;;;-145.32;100.00
14041;BME280;7095;51.388;6.196;2022-12-22T04:14:05;115728.34;;;-145.32;100.00
14041;BME280;7095;51.388;6.196;2022-12-22T04:16:38;115728.34;;;-145.32;100.00
14041;BME280;7095;51.388;6.196;2022-12-22T04:19:15;115728.34;;;-145.32;100.00
14041;BME280;7095;51.388;6.196;2022-12-22T04:21:46;115728.34;;;-145.32;100.00
14041;BME280;7095;51.388;6.196;2022-12-22T04:24:16;115728.34;;;-145.32;100.00
14041;BME280;7095;51.388;6.196;2022-12-22T04:26:48;115728.34;;;-145.32;100.00
14041;BME280;7095;51.388;6.196;2022-12-22T04:29:16;115728.34;;;-145.32;100.00
14041;BME280;7095;51.388;6.196;2022-12-22T04:31:45;115728.34;;;-145.32;100.00
14041;BME280;7095;51.388;6.196;2022-12-22T04:34:14;115728.34;;;-145.32;100.00
14041;BME280;7095;51.388;6.196;2022-12-22T04:36:43;115728.34;;;-145.32;100.00
14041;BME280;7095;51.388;6.196;2022-12-22T04:39:13;115728.34;;;-145.32;100.00
14041;BME280;7095;51.388;6.196;2022-12-22T04:41:42;115728.34;;;-145.32;100.00
14041;BME280;7095;51.388;6.196;2022-12-22T04:44:11;115728.34;;;-145.32;100.00
14041;BME280;7095;51.388;6.196;2022-12-22T04:46:40;115728.34;;;-145.32;100.00
14041;BME280;7095;51.388;6.196;2022-12-22T04:49:09;115728.34;;;-145.32;100.00
14041;BME280;7095;51.388;6.196;2022-12-22T04:51:37;115728.34;;;-145.32;100.00
14041;BME280;7095;51.388;6.196;2022-12-22T04:54:06;115728.34;;;-145.32;100.00
14041;BME280;7095;51.388;6.196;2022-12-22T04:56:36;115728.34;;;-145.32;100.00
14041;BME280;7095;51.388;6.196;2022-12-22T04:59:05;115728.34;;;-145.32;100.00
14041;BME280;7095;51.388;6.196;2022-12-22T05:01:34;115728.34;;;-145.32;100.00
14041;BME280;7095;51.388;6.196;2022-12-22T05:04:03;115728.34;;;-145.32;100.00
14041;BME280;7095;51.388;6.196;2022-12-22T05:06:33;115728.34;;;-145.32;100.00
14041;BME280;7095;51.388;6.196;2022-12-22T05:09:02;115728.34;;;-145.32;100.00
14041;BME280;7095;51.388;6.196;2022-12-22T05:11:38;115728.34;;;-145.32;100.00
14041;BME280;7095;51.388;6.196;2022-12-22T05:14:07;115728.34;;;-145.32;100.00
14041;BME280;7095;51.388;6.196;2022-12-22T05:16:35;115728.34;;;-145.32;100.00
14041;BME280;7095;51.388;6.196;2022-12-22T05:19:04;115728.34;;;-145.32;100.00
14041;BME280;7095;51.388;6.196;2022-12-22T05:21:33;115728.34;;;-145.32;100.00
14041;BME280;7095;51.388;6.196;2022-12-22T05:24:02;115728.34;;;-145.32;100.00
14041;BME280;7095;51.388;6.196;2022-12-22T05:26:31;115728.34;;;-145.32;100.00
14041;BME280;7095;51.388;6.196;2022-12-22T05:29:03;115728.34;;;-145.32;100.00
14041;BME280;7095;51.388;6.196;2022-12-22T05:31:34;115728.34;;;-145.32;100.00
14041;BME280;7095;51.388;6.196;2022-12-22T05:34:07;115728.34;;;-145.32;100.00
14041;BME280;7095;51.388;6.196;2022-12-22T05:36:36;115728.34;;;-145.32;100.00
14041;BME280;7095;51.388;6.196;2022-12-22T05:39:05;115728.34;;;-145.32;100.00
14041;BME280;7095;51.388;6.196;2022-12-22T05:41:34;115728.34;;;-145.32;100.00
14041;BME280;7095;51.388;6.196;2022-12-22T05:44:04;115728.34;;;-145.32;100.00
14041;BME280;7095;51.388;6.196;2022-12-22T05:46:33;115728.34;;;-145.32;100.00
14041;BME280;7095;51.388;6.196;2022-12-22T05:49:02;115728.34;;;-145.32;100.00
14041;BME280;7095;51.388;6.196;2022-12-22T05:51:31;115728.34;;;-145.32;100.00
14041;BME280;7095;51.388;6.196;2022-12-22T05:53:59;115728.34;;;-145.32;100.00
14041;BME280;7095;51.388;6.196;2022-12-22T05:56:28;115728.34;;;-145.32;100.00
14041;BME280;7095;51.388;6.196;2022-12-22T05:58:57;115728.34;;;-145.32;100.00
14041;BME280;7095;51.388;6.196;2022-12-22T06:01:27;115728.34;;;-145.32;100.00
14041;BME280;7095;51.388;6.196;2022-12-22T06:03:56;115728.34;;;-145.32;100.00
14041;BME280;7095;51.388;6.196;2022-12-22T06:06:26;115728.34;;;-145.32;100.00
14041;BME280;7095;51.388;6.196;2022-12-22T06:08:56;115728.34;;;-145.32;100.00
14041;BME280;7095;51.388;6.196;2022-12-22T06:11:24;115728.34;;;-145.32;100.00
14041;BME280;7095;51.388;6.196;2022-12-22T06:13:53;115728.34;;;-145.32;100.00
14041;BME280;7095;51.388;6.196;2022-12-22T06:16:22;115728.34;;;-145.32;100.00
14041;BME280;7095;51.388;6.196;2022-12-22T06:18:53;115728.34;;;-145.32;100.00
14041;BME280;7095;51.388;6.196;2022-12-22T06:21:21;115728.34;;;-145.32;100.00
14041;BME280;7095;51.388;6.196;2022-12-22T06:23:50;115728.34;;;-145.32;100.00
14041;BME280;7095;51.388;6.196;2022-12-22T06:26:21;115728.34;;;-145.32;100.00
14041;BME280;7095;51.388;6.196;2022-12-22T06:28:49;115728.34;;;-145.32;100.00
14041;BME280;7095;51.388;6.196;2022-12-22T06:31:18;115728.34;;;-145.32;100.00
14041;BME280;7095;51.388;6.196;2022-12-22T06:33:47;115728.34;;;-145.32;100.00
14041;BME280;7095;51.388;6.196;2022-12-22T06:36:17;115728.34;;;-145.32;100.00
14041;BME280;7095;51.388;6.196;2022-12-22T06:38:46;115728.34;;;-145.32;100.00
14041;BME280;7095;51.388;6.196;2022-12-22T06:41:16;115728.34;;;-145.32;100.00
14041;BME280;7095;51.388;6.196;2022-12-22T06:44:05;115728.34;;;-145.32;100.00
14041;BME280;7095;51.388;6.196;2022-12-22T06:46:33;115728.34;;;-145.32;100.00
14041;BME280;7095;51.388;6.196;2022-12-22T06:49:02;115728.34;;;-145.32;100.00
14041;BME280;7095;51.388;6.196;2022-12-22T06:51:32;115728.34;;;-145.32;100.00
14041;BME280;7095;51.388;6.196;2022-12-22T06:54:00;115728.34;;;-145.32;100.00
14041;BME280;7095;51.388;6.196;2022-12-22T06:56:29;115728.34;;;-145.32;100.00
14041;BME280;7095;51.388;6.196;2022-12-22T06:58:58;115728.34;;;-145.32;100.00
14041;BME280;7095;51.388;6.196;2022-12-22T07:01:27;115728.34;;;-145.32;100.00
14041;BME280;7095;51.388;6.196;2022-12-22T07:03:56;115728.34;;;-145.32;100.00
14041;BME280;7095;51.388;6.196;2022-12-22T07:06:24;115728.34;;;-145.32;100.00
14041;BME280;7095;51.388;6.196;2022-12-22T07:08:55;115728.34;;;-145.32;100.00
14041;BME280;7095;51.388;6.196;2022-12-22T07:11:24;115728.34;;;-145.32;100.00
14041;BME280;7095;51.388;6.196;2022-12-22T07:13:52;115728.34;;;-145.32;100.00
14041;BME280;7095;51.388;6.196;2022-12-22T07:16:21;115728.34;;;-145.32;100.00
14041;BME280;7095;51.388;6.196;2022-12-22T07:18:50;115728.34;;;-145.32;100.00
14041;BME280;7095;51.388;6.196;2022-12-22T07:21:18;115728.34;;;-145.32;100.00
14041;BME280;7095;51.388;6.196;2022-12-22T07:23:47;115728.34;;;-145.32;100.00
14041;BME280;7095;51.388;6.196;2022-12-22T07:26:18;115728.34;;;-145.32;100.00
14041;BME280;7095;51.388;6.196;2022-12-22T07:28:47;115728.34;;;-145.32;100.00
14041;BME280;7095;51.388;6.196;2022-12-22T07:31:17;115728.34;;;-145.32;100.00
14041;BME280;7095;51.388;6.196;2022-12-22T07:33:46;115728.34;;;-145.32;100.00
14041;BME280;7095;51.388;6.196;2022-12-22T07:36:16;115728.34;;;-145.32;100.00
14041;BME280;7095;51.388;6.196;2022-12-22T07:38:47;115728.34;;;-145.32;100.00
14041;BME280;7095;51.388;6.196;2022-12-22T07:41:19;115728.34;;;-145.32;100.00
14041;BME280;7095;51.388;6.196;2022-12-22T07:44:06;115728.34;;;-145.32;100.00
14041;BME280;7095;51.388;6.196;2022-12-22T07:46:36;115728.34;;;-145.32;100.00
14041;BME280;7095;51.388;6.196;2022-12-22T07:49:06;115728.34;;;-145.32;100.00
14041;BME280;7095;51.388;6.196;2022-12-22T07:51:54;115728.34;;;-145.32;100.00
14041;BME280;7095;51.388;6.196;2022-12-22T07:54:24;115728.34;;;-145.32;100.00
14041;BME280;7095;51.388;6.196;2022-12-22T07:56:55;115728.34;;;-145.32;100.00
14041;BME280;7095;51.388;6.196;2022-12-22T07:59:24;115728.34;;;-145.32;100.00
14041;BME280;7095;51.388;6.196;2022-12-22T08:01:52;115728.34;;;-145.32;100.00
14041;BME280;7095;51.388;6.196;2022-12-22T08:04:21;115728.34;;;-145.32;100.00
14041;BME280;7095;51.388;6.196;2022-12-22T08:06:50;115728.34;;;-145.32;100.00
14041;BME280;7095;51.388;6.196;2022-12-22T08:09:22;115728.34;;;-145.32;100.00
14041;BME280;7095;51.388;6.196;2022-12-22T08:11:56;115728.34;;;-145.32;100.00
14041;BME280;7095;51.388;6.196;2022-12-22T08:14:24;115728.34;;;-145.32;100.00
14041;BME280;7095;51.388;6.196;2022-12-22T08:16:53;115728.34;;;-145.32;100.00
14041;BME280;7095;51.388;6.196;2022-12-22T08:19:22;115728.34;;;-145.32;100.00
14041;BME280;7095;51.388;6.196;2022-12-22T08:21:50;115728.34;;;-145.32;100.00
14041;BME280;7095;51.388;6.196;2022-12-22T08:24:22;115728.34;;;-145.32;100.00
14041;BME280;7095;51.388;6.196;2022-12-22T08:26:56;115728.34;;;-145.32;100.00
14041;BME280;7095;51.388;6.196;2022-12-22T08:29:29;115728.34;;;-145.32;100.00
14041;BME280;7095;51.388;6.196;2022-12-22T08:32:02;115728.34;;;-145.32;100.00
14041;BME280;7095;51.388;6.196;2022-12-22T08:34:32;115728.34;;;-145.32;100.00
14041;BME280;7095;51.388;6.196;2022-12-22T08:37:02;115728.34;;;-145.32;100.00
14041;BME280;7095;51.388;6.196;2022-12-22T08:39:36;115728.34;;;-145.32;100.00
14041;BME280;7095;51.388;6.196;2022-12-22T08:42:11;115728.34;;;-145.32;100.00
14041;BME280;7095;51.388;6.196;2022-12-22T08:44:41;115728.34;;;-145.32;100.00
14041;BME280;7095;51.388;6.196;2022-12-22T08:47:10;115728.34;;;-145.32;100.00
14041;BME280;7095;51.388;6.196;2022-12-22T08:49:43;115728.34;;;-145.32;100.00
14041;BME280;7095;51.388;6.196;2022-12-22T08:52:12;115728.34;;;-145.32;100.00
14041;BME280;7095;51.388;6.196;2022-12-22T08:54:47;115728.34;;;-145.32;100.00
14041;BME280;7095;51.388;6.196;2022-12-22T08:57:17;115728.34;;;-145.32;100.00
14041;BME280;7095;51.388;6.196;2022-12-22T08:59:46;115728.34;;;-145.32;100.00
14041;BME280;7095;51.388;6.196;2022-12-22T09:02:15;115728.34;;;-145.32;100.00
14041;BME280;7095;51.388;6.196;2022-12-22T09:04:44;115728.34;;;-145.32;100.00
14041;BME280;7095;51.388;6.196;2022-12-22T09:07:13;115728.34;;;-145.32;100.00
14041;BME280;7095;51.388;6.196;2022-12-22T09:09:42;115728.34;;;-145.32;100.00
14041;BME280;7095;51.388;6.196;2022-12-22T09:12:13;115728.34;;;-145.32;100.00
14041;BME280;7095;51.388;6.196;2022-12-22T09:14:43;115728.34;;;-145.32;100.00
14041;BME280;7095;51.388;6.196;2022-12-22T09:17:12;115728.34;;;-145.32;100.00
14041;BME280;7095;51.388;6.196;2022-12-22T09:19:46;115728.34;;;-145.32;100.00
14041;BME280;7095;51.388;6.196;2022-12-22T09:22:15;115728.34;;;-145.32;100.00
14041;BME280;7095;51.388;6.196;2022-12-22T09:24:53;115728.34;;;-145.32;100.00
14041;BME280;7095;51.388;6.196;2022-12-22T09:27:21;115728.34;;;-145.32;100.00
14041;BME280;7095;51.388;6.196;2022-12-22T09:29:51;115728.34;;;-145.32;100.00
14041;BME280;7095;51.388;6.196;2022-12-22T09:32:20;115467.22;;;-145.32;100.00
14041;BME280;7095;51.388;6.196;2022-12-22T09:34:49;115467.22;;;-145.32;100.00
14041;BME280;7095;51.388;6.196;2022-12-22T09:37:18;115208.13;;;-145.32;100.00
14041;BME280;7095;51.388;6.196;2022-12-22T09:39:47;115208.13;;;-145.32;100.00
14041;BME280;7095;51.388;6.196;2022-12-22T09:42:18;114949.09;;;-145.32;100.00
14041;BME280;7095;51.388;6.196;2022-12-22T09:44:48;114949.09;;;-145.32;100.00
14041;BME280;7095;51.388;6.196;2022-12-22T09:47:22;114690.03;;;-145.32;100.00
14041;BME280;7095;51.388;6.196;2022-12-22T09:49:55;114690.03;;;-145.32;100.00
14041;BME280;7095;51.388;6.196;2022-12-22T09:52:40;113913.03;;;-145.32;100.00
14041;BME280;7095;51.388;6.196;2022-12-22T09:55:25;112877.31;;;-145.32;100.00
14041;BME280;7095;51.388;6.196;2022-12-22T09:57:59;112618.41;;;-145.32;100.00
14041;BME280;7095;51.388;6.196;2022-12-22T10:00:29;111583.06;;;-145.32;100.00
14041;BME280;7095;51.388;6.196;2022-12-22T10:03:05;111841.88;;;-145.32;100.00
14041;BME280;7095;51.388;6.196;2022-12-22T10:05:39;110548.00;;;-145.32;100.00
14041;BME280;7095;51.388;6.196;2022-12-22T10:08:11;110806.75;;;-145.32;100.00
14041;BME280;7095;51.388;6.196;2022-12-22T10:10:41;110548.00;;;-145.32;100.00
14041;BME280;7095;51.388;6.196;2022-12-22T10:13:16;110289.28;;;-145.32;100.00
14041;BME280;7095;51.388;6.196;2022-12-22T10:15:45;110289.28;;;-145.32;100.00
14041;BME280;7095;51.388;6.196;2022-12-22T10:18:18;111065.50;;;-145.32;100.00
14041;BME280;7095;51.388;6.196;2022-12-22T10:21:06;109513.28;;;-145.32;100.00
14041;BME280;7095;51.388;6.196;2022-12-22T10:23:38;108737.41;;;-145.32;100.00
14041;BME280;7095;51.388;6.196;2022-12-22T10:26:09;108478.84;;;-145.32;100.00
14041;BME280;7095;51.388;6.196;2022-12-22T10:28:58;107703.22;;;-145.32;100.00
14041;BME280;7095;51.388;6.196;2022-12-22T10:31:29;106669.31;;;-145.32;100.00
14041;BME280;7095;51.388;6.196;2022-12-22T10:34:11;107961.72;;;-145.32;100.00
14041;BME280;7095;51.388;6.196;2022-12-22T10:36:46;108220.28;;;-145.32;100.00
14041;BME280;7095;51.388;6.196;2022-12-22T10:39:20;105635.72;;;-145.32;100.00
14041;BME280;7095;51.388;6.196;2022-12-22T10:41:50;104344.16;;;-145.32;100.00
14041;BME280;7095;51.388;6.196;2022-12-22T10:44:22;103827.66;;;-145.32;100.00
14041;BME280;7095;51.388;6.196;2022-12-22T10:46:54;103569.44;;;-145.32;100.00
14041;BME280;7095;51.388;6.196;2022-12-22T10:49:27;100988.31;;;-145.32;100.00
14041;BME280;7095;51.388;6.196;2022-12-22T10:52:10;100214.34;;;-145.32;100.00
14041;BME280;7095;51.388;6.196;2022-12-22T10:54:42;99182.69;;;-145.32;100.00
14041;BME280;7095;51.388;6.196;2022-12-22T10:57:26;100730.31;;;-145.32;100.00
14041;BME280;7095;51.388;6.196;2022-12-22T10:59:57;97635.72;;;-145.32;100.00
14041;BME280;7095;51.388;6.196;2022-12-22T11:02:32;98151.31;;;-145.32;100.00
14041;BME280;7095;51.388;6.196;2022-12-22T11:05:07;96862.50;;;-145.32;100.00
14041;BME280;7095;51.388;6.196;2022-12-22T11:07:37;91969.47;;;-145.32;100.00
14041;BME280;7095;51.388;6.196;2022-12-22T11:10:15;91712.13;;;-145.32;100.00
14041;BME280;7095;51.388;6.196;2022-12-22T11:12:56;92484.19;;;-145.32;100.00
14041;BME280;7095;51.388;6.196;2022-12-22T11:15:33;89139.81;;;-145.32;100.00
14041;BME280;7095;51.388;6.196;2022-12-22T11:18:17;89396.97;;;-145.32;100.00
14041;BME280;7095;51.388;6.196;2022-12-22T11:20:58;84771.25;;;-145.32;100.00
14041;BME280;7095;51.388;6.196;2022-12-22T11:23:34;82717.38;;;-145.32;100.00
14041;BME280;7095;51.388;6.196;2022-12-22T11:26:13;85028.06;;;-145.32;100.00
14041;BME280;7095;51.388;6.196;2022-12-22T11:28:56;86569.41;;;-145.32;100.00
14041;BME280;7095;51.388;6.196;2022-12-22T11:31:40;84257.66;;;-145.32;100.00
14041;BME280;7095;51.388;6.196;2022-12-22T11:34:22;80921.25;;;-145.32;100.00
14041;BME280;7095;51.388;6.196;2022-12-22T11:37:03;77844.31;;;-145.32;100.00
14041;BME280;7095;51.388;6.196;2022-12-22T11:39:41;77331.78;;;-145.32;100.00
14041;BME280;7095;51.388;6.196;2022-12-22T11:42:28;74258.06;;;-145.32;100.00
14041;BME280;7095;51.388;6.196;2022-12-22T11:45:14;72722.25;;;-145.32;100.00
14041;BME280;7095;51.388;6.196;2022-12-22T11:47:52;69948.31;;;-145.32;100.00
14041;BME280;7095;51.388;6.196;2022-12-22T11:50:29;67518.00;;;-145.32;100.00
14041;BME280;7095;51.388;6.196;2022-12-22T11:53:52;66338.41;;;-145.32;100.00
14041;BME280;7095;51.388;6.196;2022-12-22T11:56:38;67380.25;;;-145.32;100.00
14041;BME280;7095;51.388;6.196;2022-12-22T11:59:26;67300.41;;;-145.32;100.00
14041;BME280;7095;51.388;6.196;2022-12-22T12:02:21;65057.47;;;-145.32;100.00
14041;BME280;7095;51.388;6.196;2022-12-22T12:05:21;63037.31;;;-145.32;100.00
14041;BME280;7095;51.388;6.196;2022-12-22T12:08:00;63392.19;;;-145.32;100.00
14041;BME280;7095;51.388;6.196;2022-12-22T12:10:38;61329.16;;;-145.32;100.00
14041;BME280;7095;51.388;6.196;2022-12-22T12:13:16;62951.56;;;-145.32;100.00
14041;BME280;7095;51.388;6.196;2022-12-22T12:16:02;62676.47;;;-145.32;100.00
14041;BME280;7095;51.388;6.196;2022-12-22T12:19:14;62863.84;;;-145.32;100.00
14041;BME280;7095;51.388;6.196;2022-12-22T12:21:55;65378.66;;;-145.32;100.00
14041;BME280;7095;51.388;6.196;2022-12-22T12:24:49;61002.38;;;-145.32;100.00
14041;BME280;7095;51.388;6.196;2022-12-22T12:27:36;60661.69;;;-145.32;100.00
14041;BME280;7095;51.388;6.196;2022-12-22T12:30:12;59659.72;;;-145.32;100.00
14041;BME280;7095;51.388;6.196;2022-12-22T12:33:06;58807.41;;;-145.32;100.00
14041;BME280;7095;51.388;6.196;2022-12-22T12:35:48;58464.94;;;-145.32;100.00
14041;BME280;7095;51.388;6.196;2022-12-22T12:38:26;59233.53;;;-145.32;100.00
14041;BME280;7095;51.388;6.196;2022-12-22T12:41:22;59263.41;;;-145.32;100.00
14041;BME280;7095;51.388;6.196;2022-12-22T12:43:54;59410.78;;;-145.32;100.00
14041;BME280;7095;51.388;6.196;2022-12-22T12:47:02;58188.22;;;-145.32;100.00
14041;BME280;7095;51.388;6.196;2022-12-22T12:56:07;57023.78;;;-145.32;100.00
14041;BME280;7095;51.388;6.196;2022-12-22T12:58:53;56788.94;;;-145.32;100.00
14041;BME280;7095;51.388;6.196;2022-12-22T13:01:57;56741.19;;;-145.32;100.00
14041;BME280;7095;51.388;6.196;2022-12-22T13:11:32;57284.50;;;-145.32;100.00
14041;BME280;7095;51.388;6.196;2022-12-22T13:14:56;57485.53;;;-145.32;100.00
14041;BME280;7095;51.388;6.196;2022-12-22T13:17:46;57786.09;;;-145.32;100.00
14041;BME280;7095;51.388;6.196;2022-12-22T13:20:20;57750.25;;;-145.32;100.00
14041;BME280;7095;51.388;6.196;2022-12-22T13:22:51;57690.53;;;-145.32;100.00
14041;BME280;7095;51.388;6.196;2022-12-22T13:25:21;57748.25;;;-145.32;100.00
14041;BME280;7095;51.388;6.196;2022-12-22T13:27:51;57907.50;;;-145.32;100.00
14041;BME280;7095;51.388;6.196;2022-12-22T13:30:21;58303.69;;;-145.32;100.00
14041;BME280;7095;51.388;6.196;2022-12-22T13:32:51;57706.47;;;-145.32;100.00
14041;BME280;7095;51.388;6.196;2022-12-22T13:35:22;57728.34;;;-145.32;100.00
14041;BME280;7095;51.388;6.196;2022-12-22T13:37:58;57847.78;;;-145.32;100.00
14041;BME280;7095;51.388;6.196;2022-12-22T13:40:29;57811.97;;;-145.32;100.00
14041;BME280;7095;51.388;6.196;2022-12-22T13:43:01;58347.47;;;-145.32;100.00